Nearby METAR Reports

This page may be slow to load as it queries the National Weather Service for data.

KBIS - Bismarck, North Dakota, USA
Distance from station: S 10mi, 15km
Updated: Fri, 20-Jul-2018 9:52pm CDT
Clear
Clear
 Wind from NE
Wind: NE 7 mph , 11 km/h
Temperature: 70°F , 21°C
Dew Point: 57°F , 14°C
Humidity: 64%
Barometer: 30.07 inHg , 1018.3 hPa
Clouds: Clear
Visibility: 10 miles , 16 km
2018/07/21 02:52 KBIS 210252Z 05006KT 10SM CLR 21/14 A3007 RMK AO2 SLP174 T02110139 53007 $
KDIK - Dickinson, North Dakota, USA
Distance from station: W 95mi, 154km
Updated: Fri, 20-Jul-2018 9:56pm CDT
Clear
Clear
 Wind from E
Wind: E 8 mph , 13 km/h
Temperature: 63°F , 17°C
Dew Point: 55°F , 13°C
Humidity: 77%
Barometer: 30.06 inHg , 1017.9 hPa
Clouds: Clear
Visibility: 10 miles , 16 km
2018/07/21 02:56 KDIK 210256Z AUTO 09007KT 10SM CLR 17/13 A3006 RMK AO2 SLP173 T01720133 53002
 
KISN - Williston, North Dakota, USA
Distance from station: NNW 2mi, 2km
Updated: Fri, 20-Jul-2018 9:52pm CDT
Clear
Clear
 Wind from E
Wind: E 10 mph , 17 km/h
Temperature: 72°F , 22°C
Dew Point: 54°F , 12°C
Humidity: 53%
Barometer: 30.04 inHg , 1017.3 hPa
Clouds: Clear
Visibility: 10 miles , 16 km
2018/07/21 02:52 KISN 210252Z AUTO 10009KT 10SM CLR 22/12 A3004 RMK AO2 SLP164 T02220122 53003
KFAR - Fargo, North Dakota, USA
Distance from station: NNW 4mi, 7km
Updated: Fri, 20-Jul-2018 9:53pm CDT
Mostly cloudy
Mostly cloudy
 Wind from N
Wind: N 9 mph , 15 km/h
Temperature: 68°F , 20°C
Dew Point: 64°F , 18°C
Humidity: 88%
Barometer: 30.02 inHg , 1016.6 hPa
Clouds: Mostly cloudy
Visibility: 8 miles , 13 km
Cloud details: Partly cloudy 2700 ft
Mostly cloudy 4900 ft
Mostly cloudy 6000 ft
2018/07/21 02:53 KFAR 210253Z 35008KT 8SM SCT027 BKN049 BKN060 20/18 A3002 RMK AO2 SLP164 T02000183 53018
 
KGFK - Grand Forks, North Dakota, USA
Distance from station: NNW 76mi, 123km
Updated: Fri, 20-Jul-2018 9:53pm CDT
Mostly cloudy
Mostly cloudy
 Wind from N
Wind: N 7 mph , 11 km/h
Temperature: 68°F , 20°C
Dew Point: 64°F , 18°C
Humidity: 88%
Barometer: 30.04 inHg , 1017.3 hPa
Clouds: Mostly cloudy
Visibility: 10 miles , 16 km
Cloud details: Few Clouds 3400 ft
Mostly cloudy 4600 ft
Mostly cloudy 9000 ft
2018/07/21 02:53 KGFK 210253Z 36006KT 10SM FEW034 BKN046 BKN090 20/18 A3004 RMK AO2 SLP172 T02000183 53020 $
KMOT - Minot, North Dakota, USA
Distance from station: E 109mi, 175km
Updated: Fri, 20-Jul-2018 9:54pm CDT
Clear
Clear
 Wind from E
Wind: E 6 mph , 9 km/h
Temperature: 66°F , 19°C
Dew Point: 54°F , 12°C
Humidity: 64%
Barometer: 30.07 inHg , 1018.3 hPa
Clouds: Clear
Visibility: 10 miles , 16 km
2018/07/21 02:54 KMOT 210254Z 08005KT 10SM CLR 19/12 A3007 RMK AO2 SLP178 T01940117 53006